Previous Day
Next Day
Current Day
SHEF ID: FVSO2 FAIRVIEW
STATION TYPE: Mesonet
PRECIP AIR-TEMP WIND-DIRWIND-SPEED REL-HUMID SOLAR-RAD
in F deg mph % W/m2
Raw-Meson Raw-Meson Raw-Meson Raw-Meson Raw-Meson Raw-Meson
(US/Central)
05/25 00:00 0.00 67.19 135.25 7.94 95.75 0.00
05/25 01:00 0.00 67.46 154.50 9.45 95.00 0.00
05/25 02:00 0.00 67.55 150.75 8.44 93.00 0.00
05/25 03:00 0.00 67.33 145.75 8.78 93.00 0.00
05/25 04:00 0.00 68.09 144.00 9.06 92.25 0.00
05/25 05:00 0.02 67.33 107.25 6.04 95.75 0.00
05/25 06:00 0.02 66.61 57.75 4.75 98.50 0.00
05/25 07:00 0.00 66.56 55.25 6.21 99.00 4.00
05/25 08:00 0.00 67.01 91.00 6.54 99.00 28.75
05/25 09:00 0.00 68.45 135.75 7.83 98.25 154.50
05/25 10:00 0.00 70.38 160.50 7.27 90.25 238.25
05/25 11:00 0.00 72.32 173.50 7.94 81.25 398.25
05/25 12:00 0.00 75.25 211.75 8.28 70.75 522.00
05/25 13:00 0.00 75.29 219.75 5.59 67.75 361.50
05/25 14:00 0.00 77.68 199.00 6.82 61.25 662.75
05/25 15:00 0.00 80.87 199.75 7.72 54.25 734.75
05/25 16:00 0.00 81.37 196.00 6.43 51.25 668.75
05/25 17:00 0.00 83.53 182.25 5.59 46.75 661.25
05/25 18:00 0.00 84.92 175.25 6.26 44.25 547.75
05/25 19:00 0.00 83.84 169.00 8.89 48.25 344.50
05/25 20:00 0.00 80.33 150.25 8.33 57.50 153.50
05/25 21:00 0.00 73.94 147.25 10.23 75.00 15.00
05/25 22:00 0.00 70.84 152.75 6.26 81.50 0.00
05/25 23:00 ---- 69.58 223.00 6.21 83.75 0.00